Time;durP1;ratioP1;P1;durP2;ratioP2;P2;SDS_P1;SDS_P2;PMS_P1;PMS_P2;Temp;Humidity;BMP_temperature;BMP_pressure;BME280_temperature;BME280_humidity;BME280_pressure;Samples;Min_cycle;Max_cycle;Signal;HPM_P1;HPM_P2
2020/12/21 00:01:48;;;;;;;17.48;7.18;;;8.10;99.90;;;;;;5019043;28;20247;-81
2020/12/21 00:04:14;;;;;;;11.80;6.03;;;8.10;99.90;;;;;;5017192;28;20057;-83
2020/12/21 00:06:39;;;;;;;10.98;4.70;;;8.10;99.90;;;;;;5019145;28;20038;-82
2020/12/21 00:09:05;;;;;;;8.18;3.78;;;8.10;99.90;;;;;;5031886;28;20071;-82
2020/12/21 00:11:36;;;;;;;5.25;2.95;;;8.20;99.90;;;;;;5025613;28;20029;-82
2020/12/21 00:14:02;;;;;;;4.90;2.67;;;8.30;99.90;;;;;;5030066;28;20048;-83
2020/12/21 00:16:39;;;;;;;3.83;2.10;;;8.40;99.90;;;;;;5020160;28;20036;-82
2020/12/21 00:19:05;;;;;;;5.70;2.22;;;8.40;99.90;;;;;;5019584;28;20089;-82
2020/12/21 00:21:31;;;;;;;5.50;2.10;;;8.40;99.90;;;;;;5018366;28;20026;-81
2020/12/21 00:23:58;;;;;;;6.03;2.05;;;8.50;99.90;;;;;;5024897;28;20033;-83
2020/12/21 00:26:23;;;;;;;3.25;2.03;;;8.50;99.90;;;;;;5028223;28;20026;-83
2020/12/21 00:28:49;;;;;;;4.88;2.42;;;8.60;99.90;;;;;;5021594;28;20037;-83
2020/12/21 00:31:23;;;;;;;4.55;2.08;;;8.60;99.90;;;;;;5015153;28;20033;-83
2020/12/21 00:33:49;;;;;;;5.22;2.22;;;8.60;99.90;;;;;;5017371;28;20770;-83
2020/12/21 00:36:15;;;;;;;4.95;2.13;;;8.60;99.90;;;;;;5010767;28;20049;-83
2020/12/21 00:38:40;;;;;;;3.67;2.25;;;8.60;99.90;;;;;;5021381;28;20063;-81
2020/12/21 00:41:14;;;;;;;3.72;2.22;;;8.60;99.90;;;;;;5015164;28;20591;-82
2020/12/21 00:43:40;;;;;;;4.50;2.15;;;8.50;99.90;;;;;;5004095;28;20041;-82
2020/12/21 00:46:10;;;;;;;3.45;2.00;;;8.50;99.90;;;;;;5010156;28;20034;-81
2020/12/21 00:48:36;;;;;;;6.32;2.33;;;8.50;99.90;;;;;;5014987;28;20050;-82
2020/12/21 00:51:01;;;;;;;3.85;2.00;;;8.50;99.90;;;;;;5025420;28;20044;-83
2020/12/21 00:53:27;;;;;;;4.45;2.17;;;8.50;99.90;;;;;;5021390;28;20048;-83
2020/12/21 00:55:53;;;;;;;3.78;2.05;;;8.40;99.90;;;;;;4997021;28;20096;-83
2020/12/21 00:58:18;;;;;;;5.35;1.95;;;8.40;99.90;;;;;;5014720;28;20033;-83
2020/12/21 01:00:44;;;;;;;5.63;2.08;;;8.40;99.90;;;;;;5008018;28;20076;-83
2020/12/21 01:03:09;;;;;;;3.80;1.83;;;8.50;99.90;;;;;;5022258;28;20022;-82
2020/12/21 01:05:36;;;;;;;4.05;2.10;;;8.40;99.90;;;;;;5021775;28;20049;-82
2020/12/21 01:08:01;;;;;;;3.60;1.95;;;8.50;99.90;;;;;;5015504;28;20042;-82
2020/12/21 01:10:27;;;;;;;2.88;1.83;;;8.50;99.90;;;;;;5003818;28;20030;-82
2020/12/21 01:12:52;;;;;;;3.47;1.77;;;8.40;99.90;;;;;;5022819;28;20037;-83
2020/12/21 01:15:18;;;;;;;4.43;2.13;;;8.50;99.90;;;;;;5021191;28;20098;-84
2020/12/21 01:17:44;;;;;;;6.30;2.10;;;8.60;99.90;;;;;;5018609;28;20044;-84
2020/12/21 01:20:12;;;;;;;5.63;2.47;;;8.60;99.90;;;;;;5015910;28;20057;-84
2020/12/21 01:22:39;;;;;;;8.13;2.30;;;8.60;99.90;;;;;;5019848;28;20034;-81
2020/12/21 01:25:06;;;;;;;3.53;2.03;;;8.60;99.90;;;;;;5015523;28;20315;-82
2020/12/21 01:27:32;;;;;;;6.05;2.10;;;8.50;99.90;;;;;;5013978;28;20052;-82
2020/12/21 01:29:58;;;;;;;6.65;2.83;;;8.50;99.90;;;;;;5015054;28;20038;-82
2020/12/21 01:32:23;;;;;;;7.00;2.42;;;8.50;99.90;;;;;;5002055;28;20210;-84
2020/12/21 01:34:49;;;;;;;4.38;2.30;;;8.50;99.90;;;;;;5021899;28;20041;-83
2020/12/21 01:37:14;;;;;;;4.72;1.80;;;8.50;99.90;;;;;;5021655;28;20045;-83
2020/12/21 01:39:48;;;;;;;5.18;2.50;;;8.40;99.90;;;;;;5025969;28;20393;-84
2020/12/21 01:42:14;;;;;;;3.67;2.47;;;8.40;99.90;;;;;;5006481;28;20108;-85
2020/12/21 01:44:40;;;;;;;4.93;2.00;;;8.40;99.90;;;;;;5022404;28;20068;-84
2020/12/21 01:47:05;;;;;;;4.97;2.83;;;8.30;99.90;;;;;;4993455;28;20126;-82
2020/12/21 01:49:31;;;;;;;3.53;1.95;;;8.30;99.90;;;;;;5022798;28;20040;-82
2020/12/21 01:51:57;;;;;;;4.20;1.98;;;8.30;99.90;;;;;;5030168;28;20022;-82
2020/12/21 01:54:23;;;;;;;6.47;2.53;;;8.20;99.90;;;;;;5016467;28;20040;-81
2020/12/21 01:56:52;;;;;;;7.30;2.08;;;8.10;99.90;;;;;;5028143;28;20096;-81
2020/12/21 01:59:18;;;;;;;7.07;1.80;;;8.00;99.90;;;;;;5022395;28;20064;-81
2020/12/21 02:01:45;;;;;;;5.65;2.53;;;7.80;99.90;;;;;;5033697;28;20042;-81
2020/12/21 02:04:11;;;;;;;3.85;1.90;;;7.70;99.90;;;;;;5017402;28;20097;-82
2020/12/21 02:06:36;;;;;;;4.47;1.80;;;7.60;99.90;;;;;;5026226;28;20112;-84
2020/12/21 02:09:02;;;;;;;5.00;2.22;;;7.50;99.90;;;;;;5020289;28;20049;-84
2020/12/21 02:11:27;;;;;;;6.22;2.50;;;7.40;99.90;;;;;;5023114;28;20453;-81
2020/12/21 02:13:53;;;;;;;4.35;1.70;;;7.40;99.90;;;;;;5022491;28;20042;-82
2020/12/21 02:16:19;;;;;;;3.22;1.85;;;7.30;99.90;;;;;;5019245;28;20053;-83
2020/12/21 02:18:45;;;;;;;6.10;2.33;;;7.20;99.90;;;;;;5023140;28;20038;-85
2020/12/21 02:21:10;;;;;;;5.20;2.35;;;7.20;99.90;;;;;;5023172;28;20022;-84
2020/12/21 02:23:36;;;;;;;7.22;2.60;;;7.20;99.90;;;;;;5026411;28;20099;-84
2020/12/21 02:26:01;;;;;;;4.80;2.42;;;7.10;99.90;;;;;;5023332;28;20045;-84
2020/12/21 02:28:27;;;;;;;5.00;3.30;;;7.10;99.90;;;;;;5025546;28;20025;-84
2020/12/21 02:30:53;;;;;;;7.97;3.97;;;7.00;99.90;;;;;;5026841;28;20108;-83
2020/12/21 02:33:18;;;;;;;13.55;5.00;;;7.00;99.90;;;;;;5025167;28;20034;-84
2020/12/21 02:35:44;;;;;;;10.30;5.35;;;6.90;99.90;;;;;;5028730;28;20085;-83
2020/12/21 02:38:09;;;;;;;15.88;8.43;;;6.80;99.90;;;;;;5031330;28;20044;-85
2020/12/21 02:40:40;;;;;;;11.60;6.55;;;6.80;99.90;;;;;;5035248;28;20600;-82
2020/12/21 02:43:05;;;;;;;17.63;9.80;;;6.80;99.90;;;;;;5034320;28;20097;-84
2020/12/21 02:45:31;;;;;;;15.38;8.77;;;6.80;99.90;;;;;;5032073;28;20358;-83
2020/12/21 02:47:56;;;;;;;19.08;8.77;;;6.80;99.90;;;;;;5034428;28;20081;-82
2020/12/21 02:50:22;;;;;;;20.27;9.88;;;6.70;99.90;;;;;;5036216;28;20108;-80
2020/12/21 02:52:47;;;;;;;18.70;10.60;;;6.70;99.90;;;;;;5034616;28;20044;-81
2020/12/21 02:55:13;;;;;;;21.90;10.95;;;6.80;99.90;;;;;;5033383;28;20498;-82
2020/12/21 02:57:39;;;;;;;20.00;10.15;;;6.70;99.90;;;;;;5021967;28;20573;-81
2020/12/21 03:00:07;;;;;;;19.20;10.80;;;6.80;99.90;;;;;;5022115;28;20042;-83
2020/12/21 03:02:33;;;;;;;20.77;10.77;;;6.70;99.90;;;;;;5024777;28;20080;-82
2020/12/21 03:04:58;;;;;;;17.48;10.85;;;6.70;99.90;;;;;;5026684;28;20595;-83
2020/12/21 03:07:24;;;;;;;21.00;10.88;;;6.70;99.90;;;;;;5008555;28;20047;-82
2020/12/21 03:09:49;;;;;;;21.13;11.80;;;6.60;99.90;;;;;;5031957;28;20068;-82
2020/12/21 03:12:15;;;;;;;25.52;11.98;;;6.60;99.90;;;;;;5022056;28;20105;-83
2020/12/21 03:14:40;;;;;;;22.80;12.00;;;6.60;99.90;;;;;;5029027;28;20547;-82
2020/12/21 03:17:06;;;;;;;27.13;11.85;;;6.60;99.90;;;;;;5021451;28;20172;-82
2020/12/21 03:19:31;;;;;;;22.30;12.38;;;6.50;99.90;;;;;;5022244;28;20040;-83
2020/12/21 03:21:57;;;;;;;25.52;11.52;;;6.40;99.90;;;;;;5025929;28;20117;-82
2020/12/21 03:24:22;;;;;;;22.10;11.70;;;6.40;99.90;;;;;;5022731;28;20038;-82
2020/12/21 03:26:48;;;;;;;26.52;11.90;;;6.40;99.90;;;;;;5032243;28;20049;-83
2020/12/21 03:29:14;;;;;;;21.92;11.45;;;6.30;99.90;;;;;;5023756;28;20049;-82
2020/12/21 03:31:40;;;;;;;26.08;11.93;;;6.20;99.90;;;;;;5008900;28;20037;-82
2020/12/21 03:34:05;;;;;;;19.83;11.45;;;6.20;99.90;;;;;;5000636;28;20033;-82
2020/12/21 03:36:31;;;;;;;21.15;9.90;;;6.10;99.90;;;;;;5016044;28;20029;-82
2020/12/21 03:38:56;;;;;;;20.80;10.40;;;6.10;99.90;;;;;;5024865;28;20022;-82
2020/12/21 03:41:22;;;;;;;18.95;9.57;;;6.10;99.90;;;;;;5022532;28;20389;-83
2020/12/21 03:43:47;;;;;;;19.55;8.23;;;6.10;99.90;;;;;;5027949;28;20040;-82
2020/12/21 03:46:13;;;;;;;20.40;9.18;;;6.00;99.90;;;;;;5028049;28;20045;-82
2020/12/21 03:48:38;;;;;;;15.65;8.82;;;6.00;99.90;;;;;;5010020;28;20037;-81
2020/12/21 03:51:04;;;;;;;13.55;7.28;;;6.00;99.90;;;;;;5018239;28;20034;-82
2020/12/21 03:53:30;;;;;;;18.52;8.77;;;5.90;99.90;;;;;;5030517;28;20026;-82
2020/12/21 03:55:55;;;;;;;16.27;8.55;;;5.90;99.90;;;;;;5001157;28;20071;-84
2020/12/21 03:58:21;;;;;;;12.57;8.18;;;5.80;99.90;;;;;;5026291;28;20075;-83
2020/12/21 04:00:47;;;;;;;18.20;7.78;;;5.70;99.90;;;;;;5039759;28;20048;-80
2020/12/21 04:03:12;;;;;;;18.67;8.60;;;5.70;99.90;;;;;;5015074;28;20037;-82
2020/12/21 04:05:38;;;;;;;15.27;7.90;;;5.70;99.90;;;;;;5029235;28;20649;-81
2020/12/21 04:08:03;;;;;;;16.40;8.45;;;5.60;99.90;;;;;;5016091;28;20581;-82
2020/12/21 04:10:29;;;;;;;13.80;7.75;;;5.60;99.90;;;;;;5019580;28;20042;-82
2020/12/21 04:12:54;;;;;;;15.88;8.50;;;5.60;99.90;;;;;;5022955;28;20240;-82
2020/12/21 04:15:20;;;;;;;20.85;8.32;;;5.60;99.90;;;;;;5017976;28;20036;-82
2020/12/21 04:17:45;;;;;;;23.42;8.80;;;5.60;99.90;;;;;;5021135;28;20038;-83
2020/12/21 04:20:11;;;;;;;18.40;8.38;;;5.50;99.90;;;;;;5024452;28;20040;-83
2020/12/21 04:22:36;;;;;;;15.85;8.68;;;5.50;99.90;;;;;;5020626;28;21012;-82
2020/12/21 04:25:02;;;;;;;13.95;7.72;;;5.50;99.90;;;;;;5020674;28;20051;-82
2020/12/21 04:27:28;;;;;;;13.80;8.13;;;5.50;99.90;;;;;;5021442;28;20666;-83
2020/12/21 04:29:53;;;;;;;14.98;7.63;;;5.50;99.90;;;;;;5021666;28;20650;-82
2020/12/21 04:32:19;;;;;;;13.35;7.10;;;5.50;99.90;;;;;;5005084;28;20488;-82
2020/12/21 04:34:44;;;;;;;16.70;7.38;;;5.50;99.90;;;;;;5006592;28;20034;-81
2020/12/21 04:37:10;;;;;;;13.73;6.97;;;5.50;99.90;;;;;;5022412;28;20034;-82
2020/12/21 04:39:36;;;;;;;19.85;7.40;;;5.50;99.90;;;;;;5023172;28;20045;-81
2020/12/21 04:42:01;;;;;;;14.00;7.35;;;5.50;99.90;;;;;;5021685;28;20045;-84
2020/12/21 04:44:27;;;;;;;17.02;7.15;;;5.60;99.90;;;;;;5025167;28;20042;-82
2020/12/21 04:46:57;;;;;;;14.23;8.00;;;5.60;99.90;;;;;;5000624;28;20057;-82
2020/12/21 04:49:24;;;;;;;15.32;7.68;;;5.70;99.90;;;;;;5021402;28;20041;-82
2020/12/21 04:51:50;;;;;;;23.60;10.02;;;5.70;99.90;;;;;;5000082;28;20045;-83
2020/12/21 04:54:17;;;;;;;15.30;8.98;;;5.70;99.90;;;;;;5017303;28;20026;-81
2020/12/21 04:56:43;;;;;;;26.58;10.73;;;5.70;99.90;;;;;;5021124;28;20037;-81
2020/12/21 04:59:10;;;;;;;27.65;12.30;;;5.70;99.90;;;;;;4997273;28;20040;-82
2020/12/21 05:01:35;;;;;;;28.35;12.77;;;5.70;99.90;;;;;;5016137;28;20701;-82
2020/12/21 05:04:01;;;;;;;25.17;11.05;;;5.70;99.90;;;;;;5015832;28;20041;-85
2020/12/21 05:06:27;;;;;;;21.50;11.75;;;5.70;99.90;;;;;;5019477;28;20029;-82
2020/12/21 05:09:07;;;;;;;19.30;11.82;;;5.70;99.90;;;;;;5022350;28;20026;-82
2020/12/21 05:11:34;;;;;;;21.40;11.68;;;5.70;99.90;;;;;;5020057;28;20042;-82
2020/12/21 05:14:10;;;;;;;21.10;11.65;;;5.70;99.90;;;;;;5018032;28;20034;-82
2020/12/21 05:16:37;;;;;;;30.77;11.68;;;5.70;99.90;;;;;;5023512;28;20588;-83
2020/12/21 05:19:04;;;;;;;18.90;9.77;;;5.70;99.90;;;;;;5023408;28;20040;-81
2020/12/21 05:21:30;;;;;;;17.98;10.02;;;5.70;99.90;;;;;;5020719;28;20040;-82
2020/12/21 05:23:57;;;;;;;20.13;9.68;;;5.70;99.90;;;;;;5022788;28;20036;-82
2020/12/21 05:26:28;;;;;;;20.67;8.98;;;5.70;99.90;;;;;;5018859;28;20132;-82
2020/12/21 05:28:53;;;;;;;23.90;9.57;;;5.70;99.90;;;;;;5018134;28;20025;-81
2020/12/21 05:31:19;;;;;;;18.45;8.93;;;5.70;99.90;;;;;;5005329;28;20056;-82
2020/12/21 05:33:46;;;;;;;17.20;8.48;;;5.70;99.90;;;;;;5028874;28;20049;-82
2020/12/21 05:36:19;;;;;;;16.65;9.27;;;5.80;99.90;;;;;;5020267;28;20053;-82
2020/12/21 05:38:56;;;;;;;17.13;8.73;;;5.80;99.90;;;;;;5025660;28;20030;-81
2020/12/21 05:41:22;;;;;;;19.48;8.23;;;5.80;99.90;;;;;;5022000;28;20035;-82
2020/12/21 05:43:50;;;;;;;17.35;8.73;;;5.80;99.90;;;;;;5036752;28;20524;-81
2020/12/21 05:46:17;;;;;;;14.23;8.43;;;5.90;99.90;;;;;;5023452;28;20044;-83
2020/12/21 05:48:48;;;;;;;14.82;7.65;;;5.90;99.90;;;;;;5025113;28;20048;-83
2020/12/21 05:51:30;;;;;;;15.70;8.23;;;6.00;99.90;;;;;;4993714;28;20077;-83
2020/12/21 05:53:58;;;;;;;22.65;7.97;;;6.00;99.90;;;;;;4998395;28;20038;-82
2020/12/21 05:56:25;;;;;;;13.73;6.88;;;6.00;99.90;;;;;;4997300;28;20034;-82
2020/12/21 05:58:51;;;;;;;20.75;9.18;;;6.10;99.90;;;;;;5000396;28;20045;-82
2020/12/21 06:01:17;;;;;;;19.40;9.13;;;6.10;99.90;;;;;;5034163;28;20064;-82
2020/12/21 06:03:46;;;;;;;17.10;8.60;;;6.10;99.90;;;;;;5038444;28;20037;-82
2020/12/21 06:06:15;;;;;;;22.52;10.15;;;6.10;99.90;;;;;;5034326;28;20046;-83
2020/12/21 06:08:42;;;;;;;18.40;10.18;;;6.10;99.90;;;;;;5008043;28;20030;-82
2020/12/21 06:11:13;;;;;;;20.40;9.68;;;6.10;99.90;;;;;;5028255;28;20029;-82
2020/12/21 06:13:41;;;;;;;18.77;9.88;;;6.20;99.90;;;;;;5027078;28;20034;-83
2020/12/21 06:16:08;;;;;;;19.25;9.80;;;6.20;99.90;;;;;;5017536;28;20219;-82
2020/12/21 06:18:34;;;;;;;20.42;9.80;;;6.20;99.90;;;;;;5020976;28;20043;-83
2020/12/21 06:20:59;;;;;;;21.55;9.70;;;6.20;99.90;;;;;;5002310;28;20060;-82
2020/12/21 06:23:38;;;;;;;21.02;9.75;;;6.20;99.90;;;;;;5010342;28;20030;-82
2020/12/21 06:26:13;;;;;;;23.90;9.35;;;6.10;99.90;;;;;;4992375;28;20038;-82
2020/12/21 06:28:40;;;;;;;23.17;9.38;;;6.20;99.90;;;;;;5006641;28;20045;-82
2020/12/21 06:31:19;;;;;;;16.60;9.52;;;6.10;99.90;;;;;;5008823;28;20038;-83
2020/12/21 06:33:46;;;;;;;19.98;10.27;;;6.10;99.90;;;;;;5004233;28;20088;-83
2020/12/21 06:36:12;;;;;;;17.38;9.50;;;6.10;99.90;;;;;;4996884;28;20042;-83
2020/12/21 06:38:42;;;;;;;19.73;10.25;;;6.10;99.90;;;;;;4997290;28;20030;-82
2020/12/21 06:41:23;;;;;;;23.98;10.88;;;6.10;99.90;;;;;;4981818;28;20119;-83
2020/12/21 06:43:59;;;;;;;23.48;10.15;;;6.10;99.90;;;;;;4991213;28;20039;-83
2020/12/21 06:46:25;;;;;;;17.05;9.85;;;6.10;99.90;;;;;;4990673;28;20069;-82
2020/12/21 06:49:09;;;;;;;18.50;10.57;;;6.00;99.90;;;;;;4994326;28;20173;-83
2020/12/21 06:51:39;;;;;;;23.42;9.43;;;6.00;99.90;;;;;;5004358;28;20026;-84
2020/12/21 06:54:06;;;;;;;20.42;10.05;;;6.00;99.90;;;;;;4981124;28;20519;-82
2020/12/21 06:56:32;;;;;;;22.33;10.13;;;5.90;99.90;;;;;;4996384;28;20130;-82
2020/12/21 06:58:58;;;;;;;23.75;9.93;;;5.90;99.90;;;;;;4995099;28;20121;-82
2020/12/21 07:01:26;;;;;;;24.48;10.63;;;5.90;99.90;;;;;;4981226;28;20038;-82
2020/12/21 07:03:52;;;;;;;23.33;10.30;;;5.90;99.90;;;;;;5000611;28;20038;-82
2020/12/21 07:06:18;;;;;;;17.42;9.05;;;5.90;99.90;;;;;;4997097;28;20038;-82
2020/12/21 07:08:44;;;;;;;17.80;9.73;;;5.90;99.90;;;;;;5002665;28;20037;-82
2020/12/21 07:11:20;;;;;;;29.35;10.82;;;6.00;99.90;;;;;;5004944;28;20493;-82
2020/12/21 07:13:48;;;;;;;18.65;9.30;;;5.90;99.90;;;;;;4986537;28;20628;-82
2020/12/21 07:16:16;;;;;;;19.48;10.18;;;5.90;99.90;;;;;;5003996;28;20064;-82
2020/12/21 07:18:42;;;;;;;23.52;9.38;;;5.90;99.90;;;;;;4991951;28;20034;-83
2020/12/21 07:21:09;;;;;;;17.58;8.95;;;6.00;99.90;;;;;;4990281;28;20037;-83
2020/12/21 07:23:36;;;;;;;18.73;9.60;;;6.00;99.90;;;;;;5007817;28;20030;-82
2020/12/21 07:26:02;;;;;;;19.63;9.73;;;5.90;99.90;;;;;;5001338;28;20128;-82
2020/12/21 07:28:28;;;;;;;17.33;9.27;;;5.90;99.90;;;;;;5007749;28;20022;-83
2020/12/21 07:31:08;;;;;;;15.40;8.05;;;6.00;99.90;;;;;;4996327;28;20117;-83
2020/12/21 07:33:35;;;;;;;21.52;8.30;;;6.00;99.90;;;;;;5003441;28;20030;-82
2020/12/21 07:36:02;;;;;;;20.73;8.25;;;5.90;99.90;;;;;;4994638;28;20030;-81
2020/12/21 07:38:28;;;;;;;16.60;8.75;;;5.90;99.90;;;;;;4998854;28;20646;-82
2020/12/21 07:40:54;;;;;;;15.40;7.20;;;5.90;99.90;;;;;;5005671;28;20041;-83
2020/12/21 07:43:39;;;;;;;25.40;8.52;;;6.00;99.90;;;;;;5006733;28;20035;-82
2020/12/21 07:46:11;;;;;;;11.52;6.35;;;6.00;99.90;;;;;;5026214;28;20045;-82
2020/12/21 07:48:37;;;;;;;15.38;6.57;;;6.00;99.90;;;;;;5015750;28;20038;-82
2020/12/21 07:51:05;;;;;;;16.98;6.70;;;6.00;99.90;;;;;;5026081;28;20121;-81
2020/12/21 07:53:34;;;;;;;14.30;5.93;;;6.10;99.90;;;;;;5022688;28;20030;-81
2020/12/21 07:55:59;;;;;;;18.75;6.13;;;6.10;99.90;;;;;;5018291;28;20042;-82
2020/12/21 07:58:25;;;;;;;13.20;5.43;;;6.30;99.90;;;;;;5023528;28;20592;-81
2020/12/21 08:00:58;;;;;;;11.25;5.40;;;6.40;99.90;;;;;;5023008;28;20045;-81
2020/12/21 08:03:26;;;;;;;11.55;4.60;;;6.50;99.90;;;;;;5004702;28;20062;-82
2020/12/21 08:06:13;;;;;;;10.90;4.88;;;6.50;99.90;;;;;;4992956;28;20124;-81
2020/12/21 08:08:40;;;;;;;10.40;5.25;;;6.60;99.90;;;;;;5009533;28;20052;-81
2020/12/21 08:11:12;;;;;;;9.57;4.93;;;6.60;99.90;;;;;;5009103;28;20083;-82
2020/12/21 08:13:38;;;;;;;9.07;4.90;;;6.50;99.90;;;;;;5017109;28;20038;-82
2020/12/21 08:16:08;;;;;;;14.20;4.40;;;6.50;99.90;;;;;;5001238;28;20058;-83
2020/12/21 08:18:34;;;;;;;9.00;5.10;;;6.50;99.90;;;;;;4999987;28;20042;-82
2020/12/21 08:21:00;;;;;;;9.27;5.05;;;6.60;99.90;;;;;;5019899;28;20037;-82
2020/12/21 08:23:28;;;;;;;15.82;5.15;;;6.50;99.90;;;;;;5029175;28;20061;-81
2020/12/21 08:25:54;;;;;;;9.63;5.38;;;6.50;99.90;;;;;;5039175;28;20049;-81
2020/12/21 08:28:30;;;;;;;13.75;5.13;;;6.60;99.90;;;;;;5025303;28;20026;-82
2020/12/21 08:31:19;;;;;;;12.13;5.70;;;6.70;99.90;;;;;;5021754;28;20033;-82
2020/12/21 08:34:05;;;;;;;12.07;4.72;;;6.70;99.90;;;;;;5002089;28;20048;-82
2020/12/21 08:36:32;;;;;;;8.73;4.53;;;6.70;99.90;;;;;;4994346;28;20041;-81
2020/12/21 08:39:19;;;;;;;9.05;4.75;;;6.80;99.90;;;;;;4998433;28;20046;-83
2020/12/21 08:41:55;;;;;;;13.95;5.32;;;6.80;99.90;;;;;;4991504;28;20474;-83
2020/12/21 08:44:23;;;;;;;13.93;5.45;;;6.80;99.90;;;;;;4992469;28;20067;-83
2020/12/21 08:46:58;;;;;;;11.32;4.70;;;6.90;99.90;;;;;;5011043;28;20049;-82
2020/12/21 08:49:25;;;;;;;12.10;5.47;;;6.90;99.90;;;;;;4974834;28;20376;-83
2020/12/21 08:51:51;;;;;;;12.43;5.15;;;6.90;99.90;;;;;;4987078;28;20157;-83
2020/12/21 08:54:17;;;;;;;10.63;5.43;;;7.00;99.90;;;;;;4988559;28;20100;-81
2020/12/21 08:56:47;;;;;;;11.38;5.20;;;7.00;99.90;;;;;;4996190;28;20087;-81
2020/12/21 08:59:13;;;;;;;14.13;5.78;;;7.00;99.90;;;;;;5012954;28;20056;-84
2020/12/21 09:01:43;;;;;;;14.90;5.28;;;7.00;99.90;;;;;;5014443;28;20047;-83
2020/12/21 09:04:08;;;;;;;13.50;6.60;;;7.10;99.90;;;;;;5011808;28;20158;-83
2020/12/21 09:06:34;;;;;;;12.95;5.32;;;7.10;99.90;;;;;;5010568;28;21988;-83
2020/12/21 09:09:00;;;;;;;12.02;5.82;;;7.10;99.90;;;;;;5022956;28;20040;-83
2020/12/21 09:11:25;;;;;;;10.65;5.28;;;7.10;99.90;;;;;;5032507;28;20018;-82
2020/12/21 09:13:51;;;;;;;10.52;5.18;;;7.10;99.90;;;;;;5032037;28;20059;-84
2020/12/21 09:16:24;;;;;;;11.32;5.68;;;7.20;99.90;;;;;;5029320;28;20045;-80
2020/12/21 09:18:51;;;;;;;9.88;4.97;;;7.20;99.90;;;;;;5006935;28;20040;-83
2020/12/21 09:21:25;;;;;;;11.95;4.95;;;7.30;99.90;;;;;;5007485;28;20034;-82
2020/12/21 09:23:52;;;;;;;9.70;5.00;;;7.40;99.90;;;;;;5027588;28;20108;-82
2020/12/21 09:26:18;;;;;;;13.88;5.68;;;7.50;99.90;;;;;;5019994;28;20033;-83
2020/12/21 09:28:45;;;;;;;10.43;5.07;;;7.50;99.90;;;;;;5003299;28;20045;-81
2020/12/21 09:31:12;;;;;;;11.15;5.55;;;7.60;99.90;;;;;;5010153;28;20033;-82
2020/12/21 09:33:38;;;;;;;13.70;5.38;;;7.60;99.90;;;;;;4995666;28;20503;-82
2020/12/21 09:36:08;;;;;;;19.35;5.50;;;7.70;99.90;;;;;;5008013;28;20053;-82
2020/12/21 09:38:35;;;;;;;13.57;5.40;;;7.80;99.90;;;;;;5013378;28;20673;-82
2020/12/21 09:41:00;;;;;;;16.02;4.95;;;7.80;99.90;;;;;;5007960;28;20092;-81
2020/12/21 09:43:26;;;;;;;11.65;4.82;;;7.90;99.90;;;;;;4995012;28;20037;-82
2020/12/21 09:45:52;;;;;;;10.40;4.90;;;8.00;99.90;;;;;;5008881;28;20049;-81
2020/12/21 09:48:20;;;;;;;13.43;4.78;;;8.00;99.90;;;;;;5009887;28;20692;-83
2020/12/21 09:50:46;;;;;;;15.88;5.47;;;8.10;99.90;;;;;;5011700;28;20104;-80
2020/12/21 09:53:12;;;;;;;15.50;4.88;;;8.00;99.90;;;;;;5010212;28;20095;-81
2020/12/21 09:55:40;;;;;;;13.15;4.60;;;8.20;99.90;;;;;;5014945;28;20056;-81
2020/12/21 09:58:05;;;;;;;9.50;4.53;;;8.20;99.90;;;;;;5005886;28;20065;-84
2020/12/21 10:00:31;;;;;;;11.05;4.70;;;8.30;99.90;;;;;;4992978;28;20491;-83
2020/12/21 10:02:56;;;;;;;11.30;4.03;;;8.40;99.90;;;;;;5006644;28;20124;-82
2020/12/21 10:05:22;;;;;;;15.05;3.70;;;8.50;99.90;;;;;;5011424;28;20550;-83
2020/12/21 10:07:48;;;;;;;10.50;3.75;;;8.60;98.70;;;;;;4997732;28;20052;-82
2020/12/21 10:10:14;;;;;;;14.35;3.80;;;8.60;98.80;;;;;;5011264;28;20096;-83
2020/12/21 10:12:39;;;;;;;10.82;3.35;;;8.50;98.20;;;;;;5010288;28;20048;-82
2020/12/21 10:15:05;;;;;;;10.38;3.70;;;8.50;95.70;;;;;;5010210;28;20155;-82
2020/12/21 10:17:30;;;;;;;11.65;4.18;;;8.50;97.40;;;;;;5008279;28;20048;-83
2020/12/21 10:19:56;;;;;;;11.02;3.40;;;8.50;96.40;;;;;;5004977;28;20479;-83
2020/12/21 10:22:21;;;;;;;15.02;3.72;;;8.50;95.80;;;;;;4996621;28;20068;-83
2020/12/21 10:24:47;;;;;;;9.13;3.60;;;8.60;96.20;;;;;;4998418;28;20068;-82
2020/12/21 10:27:12;;;;;;;10.23;3.42;;;8.70;95.40;;;;;;5005859;28;20084;-83
2020/12/21 10:29:38;;;;;;;9.23;3.80;;;8.70;96.60;;;;;;5016327;28;20041;-83
2020/12/21 10:32:04;;;;;;;8.85;3.17;;;8.80;95.30;;;;;;5030352;28;20052;-82
2020/12/21 10:34:30;;;;;;;14.10;3.42;;;8.80;94.80;;;;;;5039851;28;20037;-82
2020/12/21 10:36:55;;;;;;;9.18;3.80;;;8.80;94.90;;;;;;5025893;28;20069;-83
2020/12/21 10:39:21;;;;;;;8.98;3.22;;;8.70;94.20;;;;;;5018230;28;20548;-81
2020/12/21 10:41:47;;;;;;;10.40;3.53;;;8.70;94.10;;;;;;5023248;28;20044;-83
2020/12/21 10:44:13;;;;;;;15.13;3.30;;;8.80;95.00;;;;;;5021513;28;20060;-82
2020/12/21 10:46:39;;;;;;;8.60;3.30;;;8.80;94.00;;;;;;5021759;28;20030;-82
2020/12/21 10:49:04;;;;;;;8.93;3.00;;;8.70;93.30;;;;;;5002864;28;20571;-82
2020/12/21 10:51:32;;;;;;;6.63;3.00;;;8.70;93.40;;;;;;5022399;28;20487;-82
2020/12/21 10:53:58;;;;;;;19.00;3.17;;;8.70;94.00;;;;;;5021286;28;20044;-82
2020/12/21 10:56:24;;;;;;;6.47;2.67;;;8.70;95.40;;;;;;5019102;28;20500;-83
2020/12/21 10:58:50;;;;;;;7.97;2.63;;;8.70;93.80;;;;;;5019576;28;20091;-82
2020/12/21 11:01:16;;;;;;;11.15;3.70;;;8.80;93.80;;;;;;5021810;28;20038;-83
2020/12/21 11:03:43;;;;;;;6.28;2.72;;;8.80;94.10;;;;;;5005623;28;20145;-83
2020/12/21 11:06:08;;;;;;;17.48;3.53;;;8.70;93.30;;;;;;5002504;28;20034;-83
2020/12/21 11:08:34;;;;;;;9.65;2.90;;;8.80;93.50;;;;;;5024018;28;20393;-83
2020/12/21 11:10:59;;;;;;;6.80;2.85;;;8.80;94.30;;;;;;5019942;28;20113;-83
2020/12/21 11:13:25;;;;;;;5.25;2.63;;;8.90;93.70;;;;;;5017166;28;20026;-82
2020/12/21 11:15:51;;;;;;;7.22;3.10;;;8.90;93.90;;;;;;4999667;28;20041;-83
2020/12/21 11:18:17;;;;;;;11.07;3.00;;;8.90;93.80;;;;;;5010723;28;20034;-83
2020/12/21 11:20:42;;;;;;;5.88;2.90;;;9.00;93.40;;;;;;5012820;28;20124;-81
2020/12/21 11:23:08;;;;;;;13.27;3.42;;;9.00;93.30;;;;;;4997085;28;20113;-81
2020/12/21 11:25:35;;;;;;;8.60;2.85;;;9.00;92.90;;;;;;5022821;28;20049;-82
2020/12/21 11:28:00;;;;;;;9.15;2.75;;;9.10;93.10;;;;;;5019142;28;20033;-78
2020/12/21 11:30:26;;;;;;;8.75;2.92;;;9.10;92.70;;;;;;5018684;28;20365;-82
2020/12/21 11:32:51;;;;;;;7.88;2.92;;;9.20;92.90;;;;;;5024755;28;20093;-84
2020/12/21 11:35:17;;;;;;;6.25;2.58;;;9.20;92.80;;;;;;5011727;28;20030;-81
2020/12/21 11:37:42;;;;;;;4.70;2.88;;;9.20;93.00;;;;;;5008224;28;20040;-82
2020/12/21 11:40:08;;;;;;;6.28;2.67;;;9.30;92.50;;;;;;5018157;28;20429;-82
2020/12/21 11:42:33;;;;;;;7.15;2.55;;;9.20;92.40;;;;;;5019870;28;20056;-82
2020/12/21 11:44:59;;;;;;;8.05;3.28;;;9.20;92.40;;;;;;5024707;28;20058;-81
2020/12/21 11:47:25;;;;;;;10.48;3.95;;;9.30;92.70;;;;;;5026656;28;20093;-82
2020/12/21 11:49:50;;;;;;;9.25;3.03;;;9.30;93.00;;;;;;5023303;28;20042;-81
2020/12/21 11:52:16;;;;;;;9.38;3.20;;;9.30;93.10;;;;;;5019408;28;20041;-81
2020/12/21 11:54:41;;;;;;;9.50;2.80;;;9.30;92.50;;;;;;5020667;28;20046;-82
2020/12/21 11:57:07;;;;;;;12.23;2.97;;;9.20;92.60;;;;;;5018006;28;20041;-81
2020/12/21 11:59:32;;;;;;;9.40;2.85;;;9.20;93.20;;;;;;5018081;28;20042;-82
2020/12/21 12:01:59;;;;;;;8.13;3.33;;;9.30;93.00;;;;;;5015097;28;20630;-81
2020/12/21 12:04:25;;;;;;;5.35;2.65;;;9.40;93.50;;;;;;4997955;28;20049;-81
2020/12/21 12:06:53;;;;;;;12.60;3.90;;;9.40;93.20;;;;;;5018735;28;20061;-82
2020/12/21 12:09:20;;;;;;;11.77;3.58;;;9.50;92.90;;;;;;5018639;28;20637;-81
2020/12/21 12:11:45;;;;;;;7.40;3.03;;;9.60;93.10;;;;;;5025250;28;20049;-82
2020/12/21 12:14:12;;;;;;;8.98;4.05;;;9.70;93.10;;;;;;5005205;28;20038;-82
2020/12/21 12:16:37;;;;;;;8.82;2.92;;;9.70;94.30;;;;;;5025533;28;20026;-81
2020/12/21 12:19:03;;;;;;;8.38;3.53;;;9.80;93.50;;;;;;5022230;28;20052;-81
2020/12/21 12:21:28;;;;;;;7.05;2.22;;;9.80;92.60;;;;;;5024364;28;20018;-82
2020/12/21 12:23:54;;;;;;;7.75;2.42;;;9.80;92.00;;;;;;5026152;28;20109;-81
2020/12/21 12:26:20;;;;;;;4.00;2.45;;;9.80;91.90;;;;;;5026259;28;21858;-82
2020/12/21 12:28:46;;;;;;;6.82;2.38;;;9.80;92.10;;;;;;5023135;28;20065;-82
2020/12/21 12:31:18;;;;;;;4.20;2.03;;;9.80;92.30;;;;;;5018581;28;20044;-82
2020/12/21 12:33:45;;;;;;;6.90;2.65;;;9.80;92.40;;;;;;5023589;28;20112;-83
2020/12/21 12:36:25;;;;;;;6.18;2.60;;;9.70;92.20;;;;;;5027624;28;20615;-81
2020/12/21 12:38:51;;;;;;;4.53;2.30;;;9.80;93.20;;;;;;5028362;28;20033;-82
2020/12/21 12:41:17;;;;;;;4.70;2.42;;;9.80;92.60;;;;;;5031120;28;20038;-81
2020/12/21 12:43:42;;;;;;;7.55;1.98;;;9.80;93.10;;;;;;5031561;28;20088;-82
2020/12/21 12:46:09;;;;;;;6.75;2.83;;;9.90;92.60;;;;;;5024460;28;20037;-82
2020/12/21 12:48:35;;;;;;;6.90;2.85;;;10.10;92.30;;;;;;5018870;28;20044;-82